sensor_id;sensor_type;location;lat;lon;timestamp;P1;durP1;ratioP1;P2;durP2;ratioP2
56712;SDS011;42589;45.536;9.032;2023-04-19T00:00:50;18.05;;;11.48;;
56712;SDS011;42589;45.536;9.032;2023-04-19T00:03:51;16.55;;;12.07;;
56712;SDS011;42589;45.536;9.032;2023-04-19T00:06:52;16.45;;;11.70;;
56712;SDS011;42589;45.536;9.032;2023-04-19T00:09:54;17.50;;;12.20;;
56712;SDS011;42589;45.536;9.032;2023-04-19T00:12:54;16.70;;;12.35;;
56712;SDS011;42589;45.536;9.032;2023-04-19T00:15:55;16.23;;;11.98;;
56712;SDS011;42589;45.536;9.032;2023-04-19T00:18:56;19.38;;;12.85;;
56712;SDS011;42589;45.536;9.032;2023-04-19T00:21:57;18.10;;;12.27;;
56712;SDS011;42589;45.536;9.032;2023-04-19T00:24:59;16.75;;;11.80;;
56712;SDS011;42589;45.536;9.032;2023-04-19T00:28:00;18.38;;;11.98;;
56712;SDS011;42589;45.536;9.032;2023-04-19T00:31:00;17.58;;;11.57;;
56712;SDS011;42589;45.536;9.032;2023-04-19T00:34:01;16.52;;;11.05;;
56712;SDS011;42589;45.536;9.032;2023-04-19T00:37:02;16.45;;;11.73;;
56712;SDS011;42589;45.536;9.032;2023-04-19T00:40:05;17.58;;;11.55;;
56712;SDS011;42589;45.536;9.032;2023-04-19T00:43:07;19.48;;;11.90;;
56712;SDS011;42589;45.536;9.032;2023-04-19T00:46:07;18.80;;;12.05;;
56712;SDS011;42589;45.536;9.032;2023-04-19T00:49:08;17.67;;;11.90;;
56712;SDS011;42589;45.536;9.032;2023-04-19T00:52:09;17.85;;;11.80;;
56712;SDS011;42589;45.536;9.032;2023-04-19T00:55:10;15.57;;;11.57;;
56712;SDS011;42589;45.536;9.032;2023-04-19T00:58:11;16.10;;;11.52;;
56712;SDS011;42589;45.536;9.032;2023-04-19T01:01:12;15.63;;;10.93;;
56712;SDS011;42589;45.536;9.032;2023-04-19T01:04:13;15.40;;;11.40;;
56712;SDS011;42589;45.536;9.032;2023-04-19T01:07:15;18.00;;;11.45;;
56712;SDS011;42589;45.536;9.032;2023-04-19T01:10:17;16.85;;;10.95;;
56712;SDS011;42589;45.536;9.032;2023-04-19T01:13:18;15.32;;;11.68;;
56712;SDS011;42589;45.536;9.032;2023-04-19T01:16:19;15.82;;;11.25;;
56712;SDS011;42589;45.536;9.032;2023-04-19T01:19:20;15.38;;;11.52;;
56712;SDS011;42589;45.536;9.032;2023-04-19T01:22:21;17.73;;;10.77;;
56712;SDS011;42589;45.536;9.032;2023-04-19T01:25:22;14.73;;;10.98;;
56712;SDS011;42589;45.536;9.032;2023-04-19T01:28:23;17.20;;;10.93;;
56712;SDS011;42589;45.536;9.032;2023-04-19T01:31:23;17.65;;;11.55;;
56712;SDS011;42589;45.536;9.032;2023-04-19T01:34:24;17.08;;;12.18;;
56712;SDS011;42589;45.536;9.032;2023-04-19T01:37:25;18.02;;;11.30;;
56712;SDS011;42589;45.536;9.032;2023-04-19T01:40:29;18.60;;;12.00;;
56712;SDS011;42589;45.536;9.032;2023-04-19T01:43:49;15.75;;;10.88;;
56712;SDS011;42589;45.536;9.032;2023-04-19T01:46:50;18.08;;;11.43;;
56712;SDS011;42589;45.536;9.032;2023-04-19T01:49:51;17.42;;;11.73;;
56712;SDS011;42589;45.536;9.032;2023-04-19T01:52:52;17.08;;;11.27;;
56712;SDS011;42589;45.536;9.032;2023-04-19T01:55:53;16.05;;;11.43;;
56712;SDS011;42589;45.536;9.032;2023-04-19T01:58:55;17.17;;;11.52;;
56712;SDS011;42589;45.536;9.032;2023-04-19T02:01:56;17.52;;;11.50;;
56712;SDS011;42589;45.536;9.032;2023-04-19T02:04:56;17.05;;;11.60;;
56712;SDS011;42589;45.536;9.032;2023-04-19T02:07:57;15.90;;;10.90;;
56712;SDS011;42589;45.536;9.032;2023-04-19T02:11:04;16.08;;;10.82;;
56712;SDS011;42589;45.536;9.032;2023-04-19T02:14:08;16.23;;;11.50;;
56712;SDS011;42589;45.536;9.032;2023-04-19T02:17:09;16.88;;;10.75;;
56712;SDS011;42589;45.536;9.032;2023-04-19T02:20:10;17.40;;;11.38;;
56712;SDS011;42589;45.536;9.032;2023-04-19T02:23:11;17.08;;;11.88;;
56712;SDS011;42589;45.536;9.032;2023-04-19T02:26:12;18.88;;;12.25;;
56712;SDS011;42589;45.536;9.032;2023-04-19T02:29:13;18.52;;;12.05;;
56712;SDS011;42589;45.536;9.032;2023-04-19T02:32:14;15.50;;;11.80;;
56712;SDS011;42589;45.536;9.032;2023-04-19T02:35:14;15.40;;;12.18;;
56712;SDS011;42589;45.536;9.032;2023-04-19T02:38:16;21.42;;;12.63;;
56712;SDS011;42589;45.536;9.032;2023-04-19T02:41:17;17.98;;;11.98;;
56712;SDS011;42589;45.536;9.032;2023-04-19T02:44:19;17.23;;;12.55;;
56712;SDS011;42589;45.536;9.032;2023-04-19T02:47:20;18.38;;;13.32;;
56712;SDS011;42589;45.536;9.032;2023-04-19T02:50:20;19.25;;;13.38;;
56712;SDS011;42589;45.536;9.032;2023-04-19T02:53:22;18.27;;;12.48;;
56712;SDS011;42589;45.536;9.032;2023-04-19T02:56:23;18.48;;;13.07;;
56712;SDS011;42589;45.536;9.032;2023-04-19T02:59:23;18.38;;;13.50;;
56712;SDS011;42589;45.536;9.032;2023-04-19T03:02:24;19.02;;;13.50;;
56712;SDS011;42589;45.536;9.032;2023-04-19T03:05:25;17.75;;;13.23;;
56712;SDS011;42589;45.536;9.032;2023-04-19T03:08:26;16.83;;;12.65;;
56712;SDS011;42589;45.536;9.032;2023-04-19T03:11:27;19.35;;;13.15;;
56712;SDS011;42589;45.536;9.032;2023-04-19T03:14:27;17.40;;;12.57;;
56712;SDS011;42589;45.536;9.032;2023-04-19T03:17:28;16.60;;;12.27;;
56712;SDS011;42589;45.536;9.032;2023-04-19T03:20:29;20.35;;;12.07;;
56712;SDS011;42589;45.536;9.032;2023-04-19T03:23:31;18.80;;;12.90;;
56712;SDS011;42589;45.536;9.032;2023-04-19T03:26:32;17.77;;;12.80;;
56712;SDS011;42589;45.536;9.032;2023-04-19T03:29:34;15.25;;;12.23;;
56712;SDS011;42589;45.536;9.032;2023-04-19T03:32:34;21.02;;;13.52;;
56712;SDS011;42589;45.536;9.032;2023-04-19T03:35:36;18.25;;;12.73;;
56712;SDS011;42589;45.536;9.032;2023-04-19T03:38:36;16.95;;;12.73;;
56712;SDS011;42589;45.536;9.032;2023-04-19T03:41:38;15.25;;;12.10;;
56712;SDS011;42589;45.536;9.032;2023-04-19T03:44:39;15.55;;;12.02;;
56712;SDS011;42589;45.536;9.032;2023-04-19T03:47:40;17.48;;;11.95;;
56712;SDS011;42589;45.536;9.032;2023-04-19T03:50:41;16.08;;;12.20;;
56712;SDS011;42589;45.536;9.032;2023-04-19T03:53:41;15.05;;;11.30;;
56712;SDS011;42589;45.536;9.032;2023-04-19T03:56:43;14.30;;;11.88;;
56712;SDS011;42589;45.536;9.032;2023-04-19T03:59:43;15.13;;;11.60;;
56712;SDS011;42589;45.536;9.032;2023-04-19T04:02:44;17.25;;;11.80;;
56712;SDS011;42589;45.536;9.032;2023-04-19T04:05:45;15.63;;;11.95;;
56712;SDS011;42589;45.536;9.032;2023-04-19T04:08:46;16.30;;;11.52;;
56712;SDS011;42589;45.536;9.032;2023-04-19T04:11:47;17.98;;;11.63;;
56712;SDS011;42589;45.536;9.032;2023-04-19T04:14:47;17.25;;;11.68;;
56712;SDS011;42589;45.536;9.032;2023-04-19T04:17:49;15.80;;;11.43;;
56712;SDS011;42589;45.536;9.032;2023-04-19T04:20:50;15.25;;;11.15;;
56712;SDS011;42589;45.536;9.032;2023-04-19T04:23:52;17.30;;;12.00;;
56712;SDS011;42589;45.536;9.032;2023-04-19T04:26:52;14.98;;;11.63;;
56712;SDS011;42589;45.536;9.032;2023-04-19T04:29:56;16.05;;;11.65;;
56712;SDS011;42589;45.536;9.032;2023-04-19T04:32:58;16.30;;;11.20;;
56712;SDS011;42589;45.536;9.032;2023-04-19T04:35:59;16.92;;;11.90;;
56712;SDS011;42589;45.536;9.032;2023-04-19T04:39:00;18.45;;;11.23;;
56712;SDS011;42589;45.536;9.032;2023-04-19T04:42:01;17.80;;;12.50;;
56712;SDS011;42589;45.536;9.032;2023-04-19T04:45:04;16.63;;;10.98;;
56712;SDS011;42589;45.536;9.032;2023-04-19T04:48:05;18.77;;;11.57;;
56712;SDS011;42589;45.536;9.032;2023-04-19T04:51:08;17.67;;;11.68;;
56712;SDS011;42589;45.536;9.032;2023-04-19T04:54:09;15.77;;;11.23;;
56712;SDS011;42589;45.536;9.032;2023-04-19T04:57:09;16.00;;;11.52;;
56712;SDS011;42589;45.536;9.032;2023-04-19T05:00:18;19.00;;;12.52;;
56712;SDS011;42589;45.536;9.032;2023-04-19T05:03:18;15.98;;;11.77;;
56712;SDS011;42589;45.536;9.032;2023-04-19T05:06:20;19.40;;;12.48;;
56712;SDS011;42589;45.536;9.032;2023-04-19T05:09:21;15.93;;;11.52;;
56712;SDS011;42589;45.536;9.032;2023-04-19T05:12:22;20.58;;;12.27;;
56712;SDS011;42589;45.536;9.032;2023-04-19T05:15:23;24.10;;;12.52;;
56712;SDS011;42589;45.536;9.032;2023-04-19T05:18:24;17.08;;;11.27;;
56712;SDS011;42589;45.536;9.032;2023-04-19T05:21:24;18.02;;;10.90;;
56712;SDS011;42589;45.536;9.032;2023-04-19T05:24:25;13.48;;;10.60;;
56712;SDS011;42589;45.536;9.032;2023-04-19T05:27:26;23.25;;;11.70;;
56712;SDS011;42589;45.536;9.032;2023-04-19T05:30:27;21.73;;;12.15;;
56712;SDS011;42589;45.536;9.032;2023-04-19T05:33:28;19.40;;;11.88;;
56712;SDS011;42589;45.536;9.032;2023-04-19T05:36:29;16.73;;;11.45;;
56712;SDS011;42589;45.536;9.032;2023-04-19T05:39:31;19.13;;;11.65;;
56712;SDS011;42589;45.536;9.032;2023-04-19T05:42:32;21.40;;;11.45;;
56712;SDS011;42589;45.536;9.032;2023-04-19T05:45:33;18.13;;;12.35;;
56712;SDS011;42589;45.536;9.032;2023-04-19T05:48:34;28.25;;;11.70;;
56712;SDS011;42589;45.536;9.032;2023-04-19T05:51:34;22.85;;;11.55;;
56712;SDS011;42589;45.536;9.032;2023-04-19T05:54:35;18.52;;;11.48;;
56712;SDS011;42589;45.536;9.032;2023-04-19T05:57:36;24.13;;;11.05;;
56712;SDS011;42589;45.536;9.032;2023-04-19T06:00:37;15.20;;;11.02;;
56712;SDS011;42589;45.536;9.032;2023-04-19T06:03:38;18.15;;;11.23;;
56712;SDS011;42589;45.536;9.032;2023-04-19T06:06:39;18.85;;;11.60;;
56712;SDS011;42589;45.536;9.032;2023-04-19T06:09:40;16.48;;;11.00;;
56712;SDS011;42589;45.536;9.032;2023-04-19T06:12:41;17.67;;;11.85;;
56712;SDS011;42589;45.536;9.032;2023-04-19T06:15:43;21.55;;;11.50;;
56712;SDS011;42589;45.536;9.032;2023-04-19T06:18:45;30.35;;;12.38;;
56712;SDS011;42589;45.536;9.032;2023-04-19T06:21:46;20.05;;;11.80;;
56712;SDS011;42589;45.536;9.032;2023-04-19T06:24:49;26.55;;;11.70;;
56712;SDS011;42589;45.536;9.032;2023-04-19T06:27:49;28.92;;;12.27;;
56712;SDS011;42589;45.536;9.032;2023-04-19T06:31:07;20.48;;;11.85;;
56712;SDS011;42589;45.536;9.032;2023-04-19T06:34:20;17.67;;;11.50;;
56712;SDS011;42589;45.536;9.032;2023-04-19T06:37:20;20.52;;;12.68;;
56712;SDS011;42589;45.536;9.032;2023-04-19T06:40:21;16.08;;;11.43;;
56712;SDS011;42589;45.536;9.032;2023-04-19T06:43:23;17.17;;;11.55;;
56712;SDS011;42589;45.536;9.032;2023-04-19T06:46:23;22.23;;;11.95;;
56712;SDS011;42589;45.536;9.032;2023-04-19T06:49:24;22.05;;;11.52;;
56712;SDS011;42589;45.536;9.032;2023-04-19T06:52:25;20.48;;;12.73;;
56712;SDS011;42589;45.536;9.032;2023-04-19T06:55:28;17.92;;;12.63;;
56712;SDS011;42589;45.536;9.032;2023-04-19T06:58:28;16.80;;;11.60;;
56712;SDS011;42589;45.536;9.032;2023-04-19T07:01:30;17.25;;;12.18;;
56712;SDS011;42589;45.536;9.032;2023-04-19T07:04:32;16.88;;;11.60;;
56712;SDS011;42589;45.536;9.032;2023-04-19T07:07:32;17.27;;;12.23;;
56712;SDS011;42589;45.536;9.032;2023-04-19T07:10:33;15.85;;;11.23;;
56712;SDS011;42589;45.536;9.032;2023-04-19T07:13:35;16.17;;;11.07;;
56712;SDS011;42589;45.536;9.032;2023-04-19T07:16:39;15.25;;;10.77;;
56712;SDS011;42589;45.536;9.032;2023-04-19T07:19:40;16.35;;;11.32;;
56712;SDS011;42589;45.536;9.032;2023-04-19T07:22:41;15.82;;;11.15;;
56712;SDS011;42589;45.536;9.032;2023-04-19T07:25:42;20.42;;;11.23;;
56712;SDS011;42589;45.536;9.032;2023-04-19T07:28:44;16.90;;;10.98;;
56712;SDS011;42589;45.536;9.032;2023-04-19T07:31:45;16.02;;;11.13;;
56712;SDS011;42589;45.536;9.032;2023-04-19T07:34:46;15.38;;;11.35;;
56712;SDS011;42589;45.536;9.032;2023-04-19T07:37:47;16.58;;;11.45;;
56712;SDS011;42589;45.536;9.032;2023-04-19T07:40:49;16.92;;;11.07;;
56712;SDS011;42589;45.536;9.032;2023-04-19T07:43:50;19.73;;;11.75;;
56712;SDS011;42589;45.536;9.032;2023-04-19T07:46:51;19.27;;;12.00;;
56712;SDS011;42589;45.536;9.032;2023-04-19T07:49:53;19.05;;;12.25;;
56712;SDS011;42589;45.536;9.032;2023-04-19T07:52:55;18.05;;;11.48;;
56712;SDS011;42589;45.536;9.032;2023-04-19T07:55:56;17.05;;;11.23;;
56712;SDS011;42589;45.536;9.032;2023-04-19T07:58:58;22.02;;;10.90;;
56712;SDS011;42589;45.536;9.032;2023-04-19T08:02:00;15.77;;;10.73;;
56712;SDS011;42589;45.536;9.032;2023-04-19T08:05:01;16.13;;;10.20;;
56712;SDS011;42589;45.536;9.032;2023-04-19T08:08:02;14.18;;;10.05;;
56712;SDS011;42589;45.536;9.032;2023-04-19T08:11:04;13.07;;;10.10;;
56712;SDS011;42589;45.536;9.032;2023-04-19T08:14:05;12.70;;;9.52;;
56712;SDS011;42589;45.536;9.032;2023-04-19T08:17:05;14.02;;;10.73;;
56712;SDS011;42589;45.536;9.032;2023-04-19T08:20:08;17.08;;;10.60;;
56712;SDS011;42589;45.536;9.032;2023-04-19T08:23:10;16.75;;;10.88;;
56712;SDS011;42589;45.536;9.032;2023-04-19T08:26:11;13.23;;;8.38;;
56712;SDS011;42589;45.536;9.032;2023-04-19T08:29:12;10.80;;;9.05;;
56712;SDS011;42589;45.536;9.032;2023-04-19T08:32:14;13.65;;;9.30;;
56712;SDS011;42589;45.536;9.032;2023-04-19T08:35:15;13.48;;;9.40;;
56712;SDS011;42589;45.536;9.032;2023-04-19T08:38:16;11.20;;;8.45;;
56712;SDS011;42589;45.536;9.032;2023-04-19T08:41:17;16.40;;;10.73;;
56712;SDS011;42589;45.536;9.032;2023-04-19T08:44:19;12.82;;;8.85;;
56712;SDS011;42589;45.536;9.032;2023-04-19T08:47:21;14.55;;;9.80;;
56712;SDS011;42589;45.536;9.032;2023-04-19T08:50:22;16.83;;;9.43;;
56712;SDS011;42589;45.536;9.032;2023-04-19T08:53:23;15.15;;;9.07;;
56712;SDS011;42589;45.536;9.032;2023-04-19T08:59:28;12.38;;;8.88;;
56712;SDS011;42589;45.536;9.032;2023-04-19T09:02:42;13.30;;;8.65;;
56712;SDS011;42589;45.536;9.032;2023-04-19T09:05:44;12.38;;;9.57;;
56712;SDS011;42589;45.536;9.032;2023-04-19T09:08:45;14.05;;;9.98;;
56712;SDS011;42589;45.536;9.032;2023-04-19T09:11:47;18.10;;;10.15;;
56712;SDS011;42589;45.536;9.032;2023-04-19T09:14:48;13.75;;;8.88;;
56712;SDS011;42589;45.536;9.032;2023-04-19T09:18:02;11.65;;;8.00;;
56712;SDS011;42589;45.536;9.032;2023-04-19T09:21:05;10.45;;;7.53;;
56712;SDS011;42589;45.536;9.032;2023-04-19T09:24:06;9.65;;;7.40;;
56712;SDS011;42589;45.536;9.032;2023-04-19T09:27:07;8.90;;;7.07;;
56712;SDS011;42589;45.536;9.032;2023-04-19T09:30:11;9.27;;;7.88;;
56712;SDS011;42589;45.536;9.032;2023-04-19T09:33:17;10.10;;;8.48;;
56712;SDS011;42589;45.536;9.032;2023-04-19T09:36:31;10.90;;;8.32;;
56712;SDS011;42589;45.536;9.032;2023-04-19T09:39:32;11.07;;;6.70;;
56712;SDS011;42589;45.536;9.032;2023-04-19T09:42:44;9.50;;;6.80;;
56712;SDS011;42589;45.536;9.032;2023-04-19T09:45:45;8.45;;;6.20;;
56712;SDS011;42589;45.536;9.032;2023-04-19T09:48:47;8.80;;;7.07;;
56712;SDS011;42589;45.536;9.032;2023-04-19T09:51:49;10.48;;;6.68;;
56712;SDS011;42589;45.536;9.032;2023-04-19T09:54:51;9.50;;;7.18;;
56712;SDS011;42589;45.536;9.032;2023-04-19T09:57:52;9.05;;;6.70;;
56712;SDS011;42589;45.536;9.032;2023-04-19T10:00:53;7.97;;;6.53;;
56712;SDS011;42589;45.536;9.032;2023-04-19T10:03:55;10.10;;;6.85;;
56712;SDS011;42589;45.536;9.032;2023-04-19T10:06:57;11.20;;;7.45;;
56712;SDS011;42589;45.536;9.032;2023-04-19T10:09:59;9.20;;;8.30;;
56712;SDS011;42589;45.536;9.032;2023-04-19T10:13:02;8.85;;;7.65;;
56712;SDS011;42589;45.536;9.032;2023-04-19T10:16:07;9.02;;;7.65;;
56712;SDS011;42589;45.536;9.032;2023-04-19T10:19:09;10.13;;;7.82;;
56712;SDS011;42589;45.536;9.032;2023-04-19T10:22:12;12.88;;;8.10;;
56712;SDS011;42589;45.536;9.032;2023-04-19T10:25:14;12.18;;;8.38;;
56712;SDS011;42589;45.536;9.032;2023-04-19T10:28:15;10.27;;;8.13;;
56712;SDS011;42589;45.536;9.032;2023-04-19T10:31:18;10.43;;;7.90;;
56712;SDS011;42589;45.536;9.032;2023-04-19T10:34:41;9.13;;;7.53;;
56712;SDS011;42589;45.536;9.032;2023-04-19T10:38:24;9.90;;;8.18;;
56712;SDS011;42589;45.536;9.032;2023-04-19T10:41:18;11.52;;;7.30;;
56712;SDS011;42589;45.536;9.032;2023-04-19T10:44:22;11.27;;;7.85;;
56712;SDS011;42589;45.536;9.032;2023-04-19T10:47:39;9.68;;;7.38;;
56712;SDS011;42589;45.536;9.032;2023-04-19T10:54:33;13.23;;;7.60;;
56712;SDS011;42589;45.536;9.032;2023-04-19T11:07:36;9.98;;;8.38;;
56712;SDS011;42589;45.536;9.032;2023-04-19T11:10:37;9.00;;;7.38;;
56712;SDS011;42589;45.536;9.032;2023-04-19T11:13:41;9.00;;;7.20;;
56712;SDS011;42589;45.536;9.032;2023-04-19T11:16:42;10.18;;;7.53;;
56712;SDS011;42589;45.536;9.032;2023-04-19T11:23:17;12.75;;;8.30;;
56712;SDS011;42589;45.536;9.032;2023-04-19T11:26:18;7.93;;;6.97;;
56712;SDS011;42589;45.536;9.032;2023-04-19T11:29:19;11.40;;;7.60;;
56712;SDS011;42589;45.536;9.032;2023-04-19T11:32:20;9.73;;;8.02;;
56712;SDS011;42589;45.536;9.032;2023-04-19T11:35:22;7.93;;;7.13;;
56712;SDS011;42589;45.536;9.032;2023-04-19T11:38:28;9.00;;;6.95;;
56712;SDS011;42589;45.536;9.032;2023-04-19T11:41:28;7.22;;;6.00;;
56712;SDS011;42589;45.536;9.032;2023-04-19T11:44:29;8.38;;;6.80;;
56712;SDS011;42589;45.536;9.032;2023-04-19T11:47:31;9.38;;;6.90;;
56712;SDS011;42589;45.536;9.032;2023-04-19T11:53:38;8.80;;;5.95;;
56712;SDS011;42589;45.536;9.032;2023-04-19T12:00:38;8.27;;;6.63;;
56712;SDS011;42589;45.536;9.032;2023-04-19T12:03:40;9.25;;;6.65;;
56712;SDS011;42589;45.536;9.032;2023-04-19T12:06:54;13.88;;;7.75;;
56712;SDS011;42589;45.536;9.032;2023-04-19T12:09:56;7.90;;;6.57;;
56712;SDS011;42589;45.536;9.032;2023-04-19T12:13:15;11.10;;;7.05;;
56712;SDS011;42589;45.536;9.032;2023-04-19T12:16:16;9.30;;;7.00;;
56712;SDS011;42589;45.536;9.032;2023-04-19T12:23:24;9.25;;;6.95;;
56712;SDS011;42589;45.536;9.032;2023-04-19T12:26:28;11.05;;;5.53;;
56712;SDS011;42589;45.536;9.032;2023-04-19T12:29:29;8.02;;;5.80;;
56712;SDS011;42589;45.536;9.032;2023-04-19T12:32:31;10.02;;;6.28;;
56712;SDS011;42589;45.536;9.032;2023-04-19T12:35:32;12.70;;;6.40;;
56712;SDS011;42589;45.536;9.032;2023-04-19T12:38:33;7.50;;;6.38;;
56712;SDS011;42589;45.536;9.032;2023-04-19T12:41:34;7.88;;;6.07;;
56712;SDS011;42589;45.536;9.032;2023-04-19T12:44:35;7.93;;;5.50;;
56712;SDS011;42589;45.536;9.032;2023-04-19T12:47:36;4.78;;;4.22;;
56712;SDS011;42589;45.536;9.032;2023-04-19T12:50:37;7.63;;;4.97;;
56712;SDS011;42589;45.536;9.032;2023-04-19T12:53:40;6.78;;;4.50;;
56712;SDS011;42589;45.536;9.032;2023-04-19T12:56:41;6.55;;;4.75;;
56712;SDS011;42589;45.536;9.032;2023-04-19T12:59:41;7.22;;;5.13;;
56712;SDS011;42589;45.536;9.032;2023-04-19T13:02:42;9.30;;;5.32;;
56712;SDS011;42589;45.536;9.032;2023-04-19T13:05:43;7.00;;;4.80;;
56712;SDS011;42589;45.536;9.032;2023-04-19T13:08:44;7.35;;;4.88;;
56712;SDS011;42589;45.536;9.032;2023-04-19T13:11:44;8.00;;;5.90;;
56712;SDS011;42589;45.536;9.032;2023-04-19T13:14:45;5.35;;;4.57;;
56712;SDS011;42589;45.536;9.032;2023-04-19T13:17:50;7.10;;;4.95;;
56712;SDS011;42589;45.536;9.032;2023-04-19T13:20:51;8.50;;;5.05;;
56712;SDS011;42589;45.536;9.032;2023-04-19T13:23:52;7.68;;;5.72;;
56712;SDS011;42589;45.536;9.032;2023-04-19T13:26:53;7.60;;;6.00;;
56712;SDS011;42589;45.536;9.032;2023-04-19T13:29:54;6.38;;;5.78;;
56712;SDS011;42589;45.536;9.032;2023-04-19T13:32:55;7.45;;;5.93;;
56712;SDS011;42589;45.536;9.032;2023-04-19T13:35:59;9.77;;;6.78;;
56712;SDS011;42589;45.536;9.032;2023-04-19T13:39:00;9.80;;;6.97;;
56712;SDS011;42589;45.536;9.032;2023-04-19T13:42:05;9.90;;;7.45;;
56712;SDS011;42589;45.536;9.032;2023-04-19T13:45:06;12.25;;;7.43;;
56712;SDS011;42589;45.536;9.032;2023-04-19T13:48:09;8.23;;;6.93;;
56712;SDS011;42589;45.536;9.032;2023-04-19T13:51:11;8.68;;;6.53;;
56712;SDS011;42589;45.536;9.032;2023-04-19T13:54:12;12.00;;;7.20;;
56712;SDS011;42589;45.536;9.032;2023-04-19T13:57:12;8.93;;;6.47;;
56712;SDS011;42589;45.536;9.032;2023-04-19T14:00:16;10.40;;;7.57;;
56712;SDS011;42589;45.536;9.032;2023-04-19T14:03:17;10.05;;;6.78;;
56712;SDS011;42589;45.536;9.032;2023-04-19T14:06:18;8.55;;;6.00;;
56712;SDS011;42589;45.536;9.032;2023-04-19T14:09:19;9.07;;;6.68;;
56712;SDS011;42589;45.536;9.032;2023-04-19T14:12:19;9.60;;;6.95;;
56712;SDS011;42589;45.536;9.032;2023-04-19T14:15:21;11.82;;;7.72;;
56712;SDS011;42589;45.536;9.032;2023-04-19T14:18:25;9.05;;;6.97;;
56712;SDS011;42589;45.536;9.032;2023-04-19T14:21:25;10.88;;;8.18;;
56712;SDS011;42589;45.536;9.032;2023-04-19T14:24:27;14.38;;;9.15;;
56712;SDS011;42589;45.536;9.032;2023-04-19T14:27:28;12.52;;;8.43;;
56712;SDS011;42589;45.536;9.032;2023-04-19T14:30:29;11.90;;;8.07;;
56712;SDS011;42589;45.536;9.032;2023-04-19T14:33:30;11.38;;;7.65;;
56712;SDS011;42589;45.536;9.032;2023-04-19T14:36:31;13.05;;;8.05;;
56712;SDS011;42589;45.536;9.032;2023-04-19T14:39:31;11.38;;;9.07;;
56712;SDS011;42589;45.536;9.032;2023-04-19T14:42:32;13.65;;;9.55;;
56712;SDS011;42589;45.536;9.032;2023-04-19T14:45:33;10.13;;;8.10;;
56712;SDS011;42589;45.536;9.032;2023-04-19T14:48:34;12.00;;;7.97;;
56712;SDS011;42589;45.536;9.032;2023-04-19T14:51:35;12.55;;;8.35;;
56712;SDS011;42589;45.536;9.032;2023-04-19T14:54:36;11.18;;;8.73;;
56712;SDS011;42589;45.536;9.032;2023-04-19T14:57:37;13.35;;;8.02;;
56712;SDS011;42589;45.536;9.032;2023-04-19T15:00:38;7.72;;;6.43;;
56712;SDS011;42589;45.536;9.032;2023-04-19T15:03:39;10.88;;;7.00;;
56712;SDS011;42589;45.536;9.032;2023-04-19T15:06:40;7.22;;;5.82;;
56712;SDS011;42589;45.536;9.032;2023-04-19T15:09:41;9.20;;;6.63;;
56712;SDS011;42589;45.536;9.032;2023-04-19T15:12:42;11.82;;;6.88;;
56712;SDS011;42589;45.536;9.032;2023-04-19T15:15:43;14.65;;;7.70;;
56712;SDS011;42589;45.536;9.032;2023-04-19T15:18:44;14.85;;;7.90;;
56712;SDS011;42589;45.536;9.032;2023-04-19T15:21:45;10.63;;;6.80;;
56712;SDS011;42589;45.536;9.032;2023-04-19T15:24:47;12.93;;;7.20;;
56712;SDS011;42589;45.536;9.032;2023-04-19T15:27:47;10.98;;;7.43;;
56712;SDS011;42589;45.536;9.032;2023-04-19T15:30:58;9.90;;;6.90;;
56712;SDS011;42589;45.536;9.032;2023-04-19T15:34:01;12.40;;;6.70;;
56712;SDS011;42589;45.536;9.032;2023-04-19T15:37:02;8.65;;;5.97;;
56712;SDS011;42589;45.536;9.032;2023-04-19T15:40:05;7.65;;;5.28;;
56712;SDS011;42589;45.536;9.032;2023-04-19T15:43:09;5.97;;;4.70;;
56712;SDS011;42589;45.536;9.032;2023-04-19T15:46:11;6.63;;;4.22;;
56712;SDS011;42589;45.536;9.032;2023-04-19T15:49:12;6.57;;;3.85;;
56712;SDS011;42589;45.536;9.032;2023-04-19T15:52:13;5.15;;;3.67;;
56712;SDS011;42589;45.536;9.032;2023-04-19T15:55:13;7.97;;;4.72;;
56712;SDS011;42589;45.536;9.032;2023-04-19T15:58:15;6.28;;;4.50;;
56712;SDS011;42589;45.536;9.032;2023-04-19T16:01:16;6.25;;;4.10;;
56712;SDS011;42589;45.536;9.032;2023-04-19T16:04:21;7.10;;;5.10;;
56712;SDS011;42589;45.536;9.032;2023-04-19T16:07:22;7.13;;;4.63;;
56712;SDS011;42589;45.536;9.032;2023-04-19T16:10:23;8.25;;;5.15;;
56712;SDS011;42589;45.536;9.032;2023-04-19T16:13:26;6.25;;;4.55;;
56712;SDS011;42589;45.536;9.032;2023-04-19T16:16:26;7.43;;;4.10;;
56712;SDS011;42589;45.536;9.032;2023-04-19T16:19:31;10.85;;;4.95;;
56712;SDS011;42589;45.536;9.032;2023-04-19T16:22:33;8.07;;;4.68;;
56712;SDS011;42589;45.536;9.032;2023-04-19T16:25:34;8.98;;;4.35;;
56712;SDS011;42589;45.536;9.032;2023-04-19T16:28:35;4.63;;;3.50;;
56712;SDS011;42589;45.536;9.032;2023-04-19T16:31:36;5.03;;;3.15;;
56712;SDS011;42589;45.536;9.032;2023-04-19T16:34:37;3.88;;;3.00;;
56712;SDS011;42589;45.536;9.032;2023-04-19T16:37:38;6.68;;;3.70;;
56712;SDS011;42589;45.536;9.032;2023-04-19T16:40:39;6.07;;;3.97;;
56712;SDS011;42589;45.536;9.032;2023-04-19T16:43:39;9.25;;;4.15;;
56712;SDS011;42589;45.536;9.032;2023-04-19T16:46:40;5.38;;;3.15;;
56712;SDS011;42589;45.536;9.032;2023-04-19T16:49:41;3.72;;;2.60;;
56712;SDS011;42589;45.536;9.032;2023-04-19T16:52:42;6.53;;;2.67;;
56712;SDS011;42589;45.536;9.032;2023-04-19T16:55:43;5.10;;;3.40;;
56712;SDS011;42589;45.536;9.032;2023-04-19T16:58:43;6.80;;;3.20;;
56712;SDS011;42589;45.536;9.032;2023-04-19T17:01:45;5.28;;;2.90;;
56712;SDS011;42589;45.536;9.032;2023-04-19T17:04:46;5.80;;;3.30;;
56712;SDS011;42589;45.536;9.032;2023-04-19T17:07:47;5.95;;;3.35;;
56712;SDS011;42589;45.536;9.032;2023-04-19T17:10:49;6.75;;;3.55;;
56712;SDS011;42589;45.536;9.032;2023-04-19T17:13:50;5.00;;;3.08;;
56712;SDS011;42589;45.536;9.032;2023-04-19T17:16:50;6.78;;;3.28;;
56712;SDS011;42589;45.536;9.032;2023-04-19T17:19:52;6.13;;;3.40;;
56712;SDS011;42589;45.536;9.032;2023-04-19T17:22:53;4.28;;;3.45;;
56712;SDS011;42589;45.536;9.032;2023-04-19T17:25:54;8.15;;;3.10;;
56712;SDS011;42589;45.536;9.032;2023-04-19T17:28:55;5.40;;;3.15;;
56712;SDS011;42589;45.536;9.032;2023-04-19T17:31:58;5.50;;;3.53;;
56712;SDS011;42589;45.536;9.032;2023-04-19T17:35:02;6.03;;;4.03;;
56712;SDS011;42589;45.536;9.032;2023-04-19T17:38:04;7.47;;;3.80;;
56712;SDS011;42589;45.536;9.032;2023-04-19T17:41:05;5.78;;;3.58;;
56712;SDS011;42589;45.536;9.032;2023-04-19T17:44:10;5.05;;;3.10;;
56712;SDS011;42589;45.536;9.032;2023-04-19T17:47:11;6.07;;;3.30;;
56712;SDS011;42589;45.536;9.032;2023-04-19T17:50:14;7.88;;;3.58;;
56712;SDS011;42589;45.536;9.032;2023-04-19T17:53:16;5.45;;;3.03;;
56712;SDS011;42589;45.536;9.032;2023-04-19T17:56:16;4.95;;;3.28;;
56712;SDS011;42589;45.536;9.032;2023-04-19T17:59:17;7.10;;;3.40;;
56712;SDS011;42589;45.536;9.032;2023-04-19T18:02:18;6.03;;;3.33;;
56712;SDS011;42589;45.536;9.032;2023-04-19T18:05:19;6.55;;;3.45;;
56712;SDS011;42589;45.536;9.032;2023-04-19T18:08:21;6.45;;;3.25;;
56712;SDS011;42589;45.536;9.032;2023-04-19T18:11:23;7.32;;;3.20;;
56712;SDS011;42589;45.536;9.032;2023-04-19T18:14:24;4.97;;;2.90;;
56712;SDS011;42589;45.536;9.032;2023-04-19T18:17:25;4.85;;;2.70;;
56712;SDS011;42589;45.536;9.032;2023-04-19T18:20:26;6.72;;;2.90;;
56712;SDS011;42589;45.536;9.032;2023-04-19T18:23:27;5.55;;;2.53;;
56712;SDS011;42589;45.536;9.032;2023-04-19T18:26:38;4.13;;;2.30;;
56712;SDS011;42589;45.536;9.032;2023-04-19T18:29:42;3.53;;;2.30;;